DWI5101 KMIA-MDPC
Flight info
| Callsign | DWI5101 |
|---|---|
| Flight time | N/A |
| Altitude | 37000 |
| Route | KLADA2 JAGOR DCT RUMFO Y441 JUELE UW38 PTA DCT BEREL BEREL1W |
| Aircraft | B38M/M-SDE1FGHILORVWXY/HB1 |
Departure
| Time | N/A |
|---|---|
| Airport | Miami International Airport (KMIA) |
Arrival
| Time | 2026-04-30 17:49 |
|---|---|
| Airport | Punta Cana International Airport (MDPC) |
| Time | Latitude | Longitude | Altitude | Speed | Heading |
|---|---|---|---|---|---|
| 2026-04-30 17:39 | 18.84574 | -68.89716 | 9903 ft | 320 kts | 128° |
| 2026-04-30 17:41 | 18.72584 | -68.76569 | 6768 ft | 301 kts | 135° |
| 2026-04-30 17:42 | 18.69653 | -68.73462 | 6014 ft | 297 kts | 134° |
| 2026-04-30 17:42 | 18.65356 | -68.68911 | 4948 ft | 283 kts | 134° |
| 2026-04-30 17:43 | 18.62659 | -68.66055 | 4439 ft | 267 kts | 134° |
| 2026-04-30 17:44 | 18.58844 | -68.62017 | 3691 ft | 252 kts | 134° |
| 2026-04-30 17:44 | 18.55117 | -68.58073 | 2953 ft | 258 kts | 134° |
| 2026-04-30 17:46 | 18.53490 | -68.51166 | 2658 ft | 185 kts | 74° |
| 2026-04-30 17:47 | 18.54801 | -68.46485 | 1838 ft | 156 kts | 75° |
| 2026-04-30 17:48 | 18.55979 | -68.42263 | 845 ft | 147 kts | 73° |
| 2026-04-30 17:48 | 18.56827 | -68.39074 | 241 ft | 145 kts | 76° |
| 2026-04-30 17:49 | 18.57588 | -68.36255 | 51 ft | 36 kts | 82° |
| 2026-04-30 17:50 | 18.57239 | -68.35824 | 52 ft | 19 kts | 177° |
| 2026-04-30 17:51 | 18.56971 | -68.35864 | 52 ft | 8 kts | 263° |
| 2026-04-30 17:52 | 18.56953 | -68.36059 | 53 ft | 9 kts | 264° |
| 2026-04-30 17:53 | 18.56916 | -68.36495 | 53 ft | 10 kts | 265° |
| 2026-04-30 17:54 | 18.56817 | -68.36754 | 54 ft | 5 kts | 172° |
| 2026-04-30 17:55 | 18.56550 | -68.36756 | 52 ft | 19 kts | 180° |
| 2026-04-30 17:56 | 18.56440 | -68.36800 | 53 ft | 0 kts | 266° |
| 2026-04-30 17:57 | 18.56439 | -68.36810 | 53 ft | 0 kts | 266° |